Auburn Hills, Michigan
Current Conditions -  °F | °C
As of 10:34 PM on Monday 22 Dec 2014 (Local Time) from KVLL Reporting Station
Overcast Overcast  
Wind Chill: 32°   Ceiling: 10000
Heat Index: 38°   Visibility: 7mi
Dew Point: 33°   Wind: 8mph
Humidity: 84%   Direction: 70°ENE
Pressure: 29.9"   Gusts: NA
Location:  42.67°N, 83.22°W
Report Text: KVLL 230334Z AUTO 07007KT 7SM SCT044 OVC100 03/01 A2990 RMK AO2 T00310007
Loading
Personal Weather Stations






























Interactive Weather Map New forecast layout! Learn more

10-Day Weather Forecast

Advertisements
Track Severe Weather on mobile